Time;durP1;ratioP1;P1;durP2;ratioP2;P2;SDS_P1;SDS_P2;PMS_P1;PMS_P2;Temp;Humidity;BMP_temperature;BMP_pressure;BME280_temperature;BME280_humidity;BME280_pressure;Samples;Min_cycle;Max_cycle;Signal;HPM_P1;HPM_P2
2024/03/25 00:00:29;;;;;;;;;7.50;5.00;;;;;9.08;59.01;100478.47;5048574;28;45287;-60
2024/03/25 00:02:54;;;;;;;;;10.25;5.50;;;;;9.09;58.78;100476.69;5057595;28;45527;-59
2024/03/25 00:05:25;;;;;;;;;5.50;4.75;;;;;9.08;59.15;100477.56;5054269;28;47105;-60
2024/03/25 00:07:50;;;;;;;;;10.50;6.00;;;;;9.06;58.96;100481.97;5053899;28;45343;-59
2024/03/25 00:10:16;;;;;;;;;4.00;4.00;;;;;9.05;59.13;100477.69;5057360;28;45993;-59
2024/03/25 00:12:41;;;;;;;;;6.75;5.00;;;;;9.04;59.13;100468.97;5053018;28;45343;-60
2024/03/25 00:15:07;;;;;;;;;5.50;4.00;;;;;9.03;58.89;100461.16;5056317;28;74270;-60
2024/03/25 00:17:32;;;;;;;;;3.50;2.75;;;;;9.00;58.93;100458.66;5054619;28;45474;-60
2024/03/25 00:19:58;;;;;;;;;4.75;3.00;;;;;8.99;58.70;100460.38;5049584;28;45363;-59
2024/03/25 00:22:25;;;;;;;;;6.00;4.00;;;;;8.97;59.16;100458.72;5058035;28;45627;-62
2024/03/25 00:24:51;;;;;;;;;6.00;4.00;;;;;8.96;58.96;100457.00;5054729;28;47404;-59
2024/03/25 00:27:16;;;;;;;;;5.00;5.00;;;;;8.94;58.92;100459.63;5062245;28;47070;-59
2024/03/25 00:29:42;;;;;;;;;7.75;3.75;;;;;8.90;59.23;100450.19;5058122;28;45191;-59
2024/03/25 00:32:07;;;;;;;;;6.00;3.75;;;;;8.91;59.19;100459.75;5055294;28;64476;-59
2024/03/25 00:34:33;;;;;;;;;13.75;6.00;;;;;8.88;59.33;100450.22;5056439;28;45962;-59
2024/03/25 00:36:59;;;;;;;;;10.75;6.00;;;;;8.86;59.46;100453.78;5059924;28;46045;-59
2024/03/25 00:39:25;;;;;;;;;5.75;5.50;;;;;8.85;59.42;100446.81;5055595;28;45563;-59
2024/03/25 00:41:51;;;;;;;;;7.25;4.00;;;;;8.84;59.41;100453.81;5052898;28;45542;-59
2024/03/25 00:44:16;;;;;;;;;5.25;3.25;;;;;8.83;59.56;100441.66;5058353;28;46146;-59
2024/03/25 00:46:42;;;;;;;;;5.00;5.00;;;;;8.80;59.72;100444.34;5055216;28;68100;-58
2024/03/25 00:49:08;;;;;;;;;7.00;2.25;;;;;8.80;59.72;100433.03;5054886;28;68137;-59
2024/03/25 00:51:33;;;;;;;;;7.25;3.75;;;;;8.78;59.81;100440.03;5058132;28;45751;-59
2024/03/25 00:53:59;;;;;;;;;4.00;4.00;;;;;8.77;59.85;100435.75;5056581;28;46947;-58
2024/03/25 00:56:24;;;;;;;;;9.00;4.00;;;;;8.77;59.81;100425.31;5058069;28;73003;-59
2024/03/25 00:58:50;;;;;;;;;6.75;3.50;;;;;8.73;59.96;100422.75;5051850;28;67872;-58
2024/03/25 01:01:15;;;;;;;;;6.00;3.25;;;;;8.73;60.13;100412.31;5049826;28;45633;-57
2024/03/25 01:03:40;;;;;;;;;3.75;1.25;;;;;8.73;59.98;100417.53;5057199;28;66938;-59
2024/03/25 01:06:06;;;;;;;;;7.00;4.75;;;;;8.71;60.09;100406.28;5053809;28;72868;-59
2024/03/25 01:08:31;;;;;;;;;4.25;3.75;;;;;8.69;60.42;100396.78;5056333;28;68310;-59
2024/03/25 01:10:56;;;;;;;;;5.25;4.00;;;;;8.68;60.17;100389.88;5051948;28;74396;-59
2024/03/25 01:13:22;;;;;;;;;4.75;4.75;;;;;8.65;60.28;100390.78;5054350;28;75684;-59
2024/03/25 01:15:47;;;;;;;;;7.75;6.00;;;;;8.68;60.47;100389.88;5056189;28;72182;-59
2024/03/25 01:18:13;;;;;;;;;5.50;4.00;;;;;8.66;60.55;100382.06;5050372;28;45276;-59
2024/03/25 01:20:38;;;;;;;;;6.25;3.00;;;;;8.66;60.81;100382.06;5057969;28;45453;-59
2024/03/25 01:23:04;;;;;;;;;9.00;6.50;;;;;8.65;60.70;100376.88;5059795;28;46239;-59
2024/03/25 01:25:30;;;;;;;;;6.25;5.25;;;;;8.64;61.08;100385.59;5047152;28;45447;-59
2024/03/25 01:27:55;;;;;;;;;6.00;6.00;;;;;8.62;61.34;100384.78;5064689;28;45476;-58
2024/03/25 01:30:20;;;;;;;;;10.00;5.00;;;;;8.64;61.43;100383.88;5056711;28;71302;-59
2024/03/25 01:32:48;;;;;;;;;11.00;6.50;;;;;8.66;61.64;100381.22;5049661;28;56433;-59
2024/03/25 01:35:16;;;;;;;;;13.00;5.50;;;;;8.66;61.34;100370.78;5057191;28;45808;-59
2024/03/25 01:37:42;;;;;;;;;9.25;5.00;;;;;8.66;61.40;100366.41;5057806;28;47102;-59
2024/03/25 01:40:10;;;;;;;;;6.00;5.50;;;;;8.66;61.47;100358.59;5056956;28;45453;-59
2024/03/25 01:42:35;;;;;;;;;6.50;6.50;;;;;8.68;61.65;100355.94;5065026;28;46160;-58
2024/03/25 01:45:02;;;;;;;;;12.75;5.00;;;;;8.68;61.65;100346.38;5062228;28;45411;-59
2024/03/25 01:47:28;;;;;;;;;6.25;5.75;;;;;8.66;61.67;100339.50;5059021;28;45643;-60
2024/03/25 01:49:56;;;;;;;;;9.50;6.00;;;;;8.62;61.58;100335.22;5058250;28;45320;-60
2024/03/25 01:52:22;;;;;;;;;7.00;5.50;;;;;8.59;61.73;100330.06;5053158;28;46342;-58
2024/03/25 01:54:49;;;;;;;;;8.00;8.00;;;;;8.59;61.88;100336.16;5059850;28;46175;-58
2024/03/25 01:57:14;;;;;;;;;7.25;6.00;;;;;8.53;61.68;100320.66;5051616;28;45359;-59
2024/03/25 01:59:40;;;;;;;;;10.00;8.50;;;;;8.56;62.03;100333.63;5060354;28;45694;-57
2024/03/25 02:02:05;;;;;;;;;17.50;9.00;;;;;8.55;61.82;100326.69;5058160;28;75530;-59
2024/03/25 02:04:31;;;;;;;;;11.50;9.00;;;;;8.54;61.86;100311.94;5060880;28;45371;-58
2024/03/25 02:06:58;;;;;;;;;8.00;6.00;;;;;8.55;61.85;100313.66;5056479;28;69312;-57
2024/03/25 02:09:23;;;;;;;;;5.25;5.00;;;;;8.56;61.76;100304.94;5061157;28;45238;-59
2024/03/25 02:11:48;;;;;;;;;9.25;7.25;;;;;8.56;61.83;100297.13;5059324;28;45309;-59
2024/03/25 02:14:14;;;;;;;;;7.50;3.00;;;;;8.54;61.44;100294.53;5052664;28;72876;-59
2024/03/25 02:16:39;;;;;;;;;10.75;8.50;;;;;8.53;61.57;100291.97;5055475;28;69428;-59
2024/03/25 02:19:05;;;;;;;;;13.75;9.00;;;;;8.51;61.79;100286.78;5056583;28;64707;-59
2024/03/25 02:21:30;;;;;;;;;8.75;6.25;;;;;8.47;61.92;100273.88;5060059;28;46537;-59
2024/03/25 02:23:56;;;;;;;;;10.25;7.25;;;;;8.49;62.01;100279.91;5059029;28;45561;-59
2024/03/25 02:26:23;;;;;;;;;13.75;9.00;;;;;8.49;62.23;100272.09;5064876;28;45446;-59
2024/03/25 02:28:48;;;;;;;;;12.00;8.50;;;;;8.48;62.28;100271.25;5058117;28;45433;-59
2024/03/25 02:31:14;;;;;;;;;11.00;9.00;;;;;8.49;62.23;100272.94;5057348;28;62768;-59
2024/03/25 02:33:39;;;;;;;;;11.50;9.25;;;;;8.47;62.56;100266.91;5044917;28;70741;-58
2024/03/25 02:36:04;;;;;;;;;12.50;9.75;;;;;8.48;62.33;100267.75;5051696;28;53687;-59
2024/03/25 02:38:32;;;;;;;;;11.00;8.25;;;;;8.48;62.57;100272.97;5054011;28;45347;-58
2024/03/25 02:40:57;;;;;;;;;12.25;10.75;;;;;8.47;62.61;100266.06;5058563;28;45809;-58
2024/03/25 02:43:23;;;;;;;;;12.50;9.75;;;;;8.47;62.69;100260.84;5057322;28;45296;-59
2024/03/25 02:45:48;;;;;;;;;13.00;10.50;;;;;8.48;62.43;100271.25;5060143;28;68210;-58
2024/03/25 02:48:14;;;;;;;;;12.75;9.50;;;;;8.48;62.53;100258.22;5057039;28;45430;-59
2024/03/25 02:50:39;;;;;;;;;13.25;7.25;;;;;8.49;62.48;100256.44;5056658;28;46944;-59
2024/03/25 02:53:04;;;;;;;;;15.00;8.75;;;;;8.49;62.26;100259.91;5058379;28;70951;-58
2024/03/25 02:55:30;;;;;;;;;9.50;8.50;;;;;8.48;62.42;100250.38;5059547;28;45553;-58
2024/03/25 02:57:55;;;;;;;;;7.75;7.50;;;;;8.50;62.54;100248.59;5057116;28;50323;-59
2024/03/25 03:00:20;;;;;;;;;14.25;8.25;;;;;8.51;62.34;100254.66;5058022;28;69967;-58
2024/03/25 03:02:46;;;;;;;;;13.50;9.00;;;;;8.51;62.45;100252.88;5057226;28;61024;-58
2024/03/25 03:05:11;;;;;;;;;10.50;8.75;;;;;8.50;62.58;100259.03;5047846;28;60603;-57
2024/03/25 03:07:36;;;;;;;;;9.25;8.75;;;;;8.50;62.56;100251.19;5056122;28;72151;-57
2024/03/25 03:10:01;;;;;;;;;11.00;8.00;;;;;8.51;62.43;100244.22;5070414;28;75932;-57
2024/03/25 03:12:27;;;;;;;;;11.00;6.00;;;;;8.50;62.51;100240.75;5054956;28;45486;-58
2024/03/25 03:14:52;;;;;;;;;20.25;11.00;;;;;8.49;62.63;100235.59;5056900;28;66775;-59
2024/03/25 03:17:17;;;;;;;;;12.75;8.00;;;;;8.45;62.67;100234.81;5056512;28;62366;-59
2024/03/25 03:19:43;;;;;;;;;10.00;10.00;;;;;8.44;62.42;100240.91;5058533;28;75395;-60
2024/03/25 03:22:08;;;;;;;;;1.75;1.00;;;;;8.44;62.52;100238.31;5057892;28;65150;-59
2024/03/25 03:24:33;;;;;;;;;15.50;10.50;;;;;8.42;62.95;100234.88;5059733;28;68975;-59
2024/03/25 03:26:59;;;;;;;;;8.25;8.00;;;;;8.43;62.71;100227.91;5058412;28;45608;-58
2024/03/25 03:29:24;;;;;;;;;11.25;10.00;;;;;8.44;62.96;100230.47;5058415;28;47762;-58
2024/03/25 03:31:49;;;;;;;;;10.25;9.50;;;;;8.44;62.89;100214.84;5054210;28;72102;-58
2024/03/25 03:34:15;;;;;;;;;8.50;8.25;;;;;8.40;62.77;100210.56;5057237;28;63202;-59
2024/03/25 03:36:40;;;;;;;;;16.00;10.00;;;;;8.44;62.86;100208.78;5057456;28;45426;-58
2024/03/25 03:39:08;;;;;;;;;17.50;9.00;;;;;8.46;62.97;100209.59;5053075;28;46121;-59
2024/03/25 03:41:33;;;;;;;;;10.75;10.00;;;;;8.44;63.00;100204.41;5058681;27;47098;-59
2024/03/25 03:43:59;;;;;;;;;12.50;10.00;;;;;8.43;63.28;100194.00;5059048;28;64582;-59
2024/03/25 03:46:24;;;;;;;;;17.00;10.00;;;;;8.42;63.37;100198.38;5057792;28;73157;-59
2024/03/25 03:48:49;;;;;;;;;11.25;9.75;;;;;8.40;62.97;100197.53;5057182;28;75723;-59
2024/03/25 03:51:15;;;;;;;;;11.50;11.25;;;;;8.39;63.22;100195.81;5058087;28;63660;-59
2024/03/25 03:53:40;;;;;;;;;14.25;11.00;;;;;8.40;63.31;100196.69;5056334;28;56153;-59
2024/03/25 03:56:06;;;;;;;;;12.50;12.25;;;;;8.35;63.28;100187.22;5053112;28;71963;-58
2024/03/25 03:58:31;;;;;;;;;18.75;11.00;;;;;8.35;63.44;100186.38;5053744;28;47392;-59
2024/03/25 04:00:57;;;;;;;;;15.00;10.00;;;;;8.34;63.56;100193.34;5053358;28;45447;-59
2024/03/25 04:03:22;;;;;;;;;17.75;12.75;;;;;8.32;63.68;100176.91;5055484;28;55201;-59
2024/03/25 04:05:48;;;;;;;;;18.75;14.75;;;;;8.29;63.57;100178.72;5056504;28;45204;-57
2024/03/25 04:08:13;;;;;;;;;16.25;12.50;;;;;8.28;63.92;100177.00;5058631;28;46212;-58
2024/03/25 04:10:40;;;;;;;;;17.50;12.75;;;;;8.25;63.91;100171.88;5057693;28;45518;-58
2024/03/25 04:13:06;;;;;;;;;15.00;13.75;;;;;8.23;63.87;100165.84;5054648;28;45540;-57
2024/03/25 04:15:38;;;;;;;;;20.00;13.00;;;;;8.22;63.75;100172.81;5059281;28;45584;-57
2024/03/25 04:18:04;;;;;;;;;27.00;18.50;;;;;8.17;64.01;100164.25;5056597;28;46262;-59
2024/03/25 04:20:30;;;;;;;;;20.50;16.00;;;;;8.14;63.76;100162.59;5055910;28;45601;-60
2024/03/25 04:22:56;;;;;;;;;15.50;12.00;;;;;8.11;63.87;100154.84;5059185;28;45384;-59
2024/03/25 04:25:21;;;;;;;;;23.25;15.00;;;;;8.07;63.93;100153.19;5058428;28;45425;-59
2024/03/25 04:27:47;;;;;;;;;21.75;16.75;;;;;8.06;63.95;100145.44;5054628;28;46135;-59
2024/03/25 04:30:12;;;;;;;;;16.00;12.00;;;;;8.04;64.05;100140.28;5055497;28;45458;-59
2024/03/25 04:32:39;;;;;;;;;20.25;11.75;;;;;8.02;63.85;100139.47;5058358;28;66668;-59
2024/03/25 04:35:06;;;;;;;;;14.50;11.50;;;;;7.97;63.50;100131.75;5048071;28;45439;-59
2024/03/25 04:37:32;;;;;;;;;20.50;12.00;;;;;7.95;63.82;100125.75;5048693;28;48128;-59
2024/03/25 04:39:57;;;;;;;;;18.75;11.25;;;;;7.91;63.99;100126.69;5058662;28;45334;-59
2024/03/25 04:42:23;;;;;;;;;11.75;11.50;;;;;7.88;64.47;100118.97;5054397;28;68784;-59
2024/03/25 04:44:49;;;;;;;;;11.00;9.50;;;;;7.90;64.27;100126.75;5039864;28;45470;-59
2024/03/25 04:47:17;;;;;;;;;16.75;11.50;;;;;7.91;64.07;100120.63;5055365;28;46210;-59
2024/03/25 04:49:43;;;;;;;;;18.75;14.50;;;;;7.90;64.18;100116.34;5058776;28;45816;-59
2024/03/25 04:52:08;;;;;;;;;14.50;10.50;;;;;7.90;64.45;100118.94;5058250;28;45413;-59
2024/03/25 04:54:34;;;;;;;;;12.00;11.00;;;;;7.89;64.24;100112.84;5054929;28;45497;-59
2024/03/25 04:56:59;;;;;;;;;19.25;9.00;;;;;7.87;64.35;100111.19;5055533;28;70358;-59
2024/03/25 04:59:24;;;;;;;;;13.75;11.25;;;;;7.85;64.31;100110.38;5050056;28;45646;-59
2024/03/25 05:01:50;;;;;;;;;11.25;10.00;;;;;7.80;64.35;100108.72;5051744;28;68095;-58
2024/03/25 05:04:15;;;;;;;;;12.50;9.25;;;;;7.86;64.45;100114.69;5056465;28;70483;-59
2024/03/25 05:06:40;;;;;;;;;18.25;11.00;;;;;7.86;64.38;100106.88;5054950;28;75774;-58
2024/03/25 05:09:06;;;;;;;;;12.50;10.50;;;;;7.86;64.41;100110.34;5057746;28;66998;-58
2024/03/25 05:11:32;;;;;;;;;16.00;11.00;;;;;7.87;64.44;100112.03;5065052;28;45362;-58
2024/03/25 05:13:57;;;;;;;;;8.25;8.00;;;;;7.86;64.24;100107.75;5051468;28;45497;-59
2024/03/25 05:16:23;;;;;;;;;14.00;9.50;;;;;7.85;64.28;100111.22;5049593;28;45285;-57
2024/03/25 05:18:48;;;;;;;;;11.75;9.25;;;;;7.85;64.20;100115.59;5055797;28;52942;-58
2024/03/25 05:21:13;;;;;;;;;11.75;8.00;;;;;7.83;64.19;100113.03;5055643;28;66130;-58
2024/03/25 05:23:39;;;;;;;;;12.25;10.50;;;;;7.83;64.41;100109.56;5055487;28;69474;-59
2024/03/25 05:26:05;;;;;;;;;8.50;7.50;;;;;7.82;64.30;100106.09;5058331;28;45378;-60
2024/03/25 05:28:30;;;;;;;;;15.50;10.00;;;;;7.79;64.16;100099.22;5051474;28;71222;-59
2024/03/25 05:30:56;;;;;;;;;12.00;8.00;;;;;7.80;64.17;100092.25;5057179;28;45465;-59
2024/03/25 05:33:21;;;;;;;;;8.00;7.00;;;;;7.80;64.28;100094.88;5045521;28;73250;-59
2024/03/25 05:35:46;;;;;;;;;12.50;8.75;;;;;7.79;64.21;100096.63;5057160;28;74187;-59
2024/03/25 05:38:12;;;;;;;;;11.25;8.25;;;;;7.83;64.12;100101.75;5048339;28;72956;-59
2024/03/25 05:40:37;;;;;;;;;14.75;9.00;;;;;7.81;64.10;100101.78;5054040;28;64633;-59
2024/03/25 05:43:02;;;;;;;;;18.50;8.25;;;;;7.82;64.07;100092.22;5054666;27;69396;-59
2024/03/25 05:45:28;;;;;;;;;8.00;7.00;;;;;7.80;64.11;100090.50;5057527;28;46196;-59
2024/03/25 05:47:53;;;;;;;;;14.00;9.75;;;;;7.80;64.01;100089.66;5039011;28;63296;-59
2024/03/25 05:50:18;;;;;;;;;9.50;8.00;;;;;7.82;63.94;100084.41;5043891;28;68115;-58
2024/03/25 05:52:43;;;;;;;;;7.25;7.00;;;;;7.80;63.54;100090.50;5055142;28;73282;-58
2024/03/25 05:55:11;;;;;;;;;10.50;8.50;;;;;7.80;63.77;100085.28;5055608;28;76364;-58
2024/03/25 05:57:37;;;;;;;;;8.00;5.25;;;;;7.79;63.76;100093.13;5055159;28;45263;-59
2024/03/25 06:00:03;;;;;;;;;9.25;6.00;;;;;7.78;63.75;100083.63;5055012;28;45366;-58
2024/03/25 06:02:30;;;;;;;;;8.50;6.00;;;;;7.74;63.52;100087.22;5059383;28;46021;-59
2024/03/25 06:04:56;;;;;;;;;16.25;7.50;;;;;7.73;63.60;100093.31;5058119;27;45374;-58
2024/03/25 06:07:21;;;;;;;;;7.75;7.00;;;;;7.71;63.79;100093.34;5053049;28;45328;-58
2024/03/25 06:09:47;;;;;;;;;10.25;6.50;;;;;7.71;63.67;100085.53;5060680;28;45374;-58
2024/03/25 06:12:13;;;;;;;;;9.00;6.00;;;;;7.70;63.72;100086.44;5058590;28;72986;-58
2024/03/25 06:14:38;;;;;;;;;8.00;7.75;;;;;7.71;63.67;100076.88;5060054;28;45408;-59
2024/03/25 06:17:03;;;;;;;;;11.25;7.00;;;;;7.71;63.71;100074.28;5057253;28;45416;-58
2024/03/25 06:19:29;;;;;;;;;15.25;8.75;;;;;7.70;63.86;100070.81;5060179;28;67999;-57
2024/03/25 06:21:54;;;;;;;;;7.50;5.75;;;;;7.71;63.85;100071.66;5059951;28;68319;-57
2024/03/25 06:24:19;;;;;;;;;12.00;8.50;;;;;7.73;63.72;100060.31;5059267;28;46162;-59
2024/03/25 06:26:45;;;;;;;;;10.50;7.00;;;;;7.76;64.01;100056.78;5054825;28;70344;-58
2024/03/25 06:29:10;;;;;;;;;10.25;5.00;;;;;7.76;63.79;100054.19;5049818;28;69408;-59
2024/03/25 06:34:21;;;;;;;;;11.50;7.75;;;;;7.80;63.76;100053.19;5046078;28;45880;-59
2024/03/25 06:36:47;;;;;;;;;8.75;5.75;;;;;7.81;63.90;100052.31;5058734;28;45478;-59
2024/03/25 06:39:16;;;;;;;;;16.25;8.00;;;;;7.83;63.89;100042.69;5059324;28;45800;-56
2024/03/25 06:41:41;;;;;;;;;13.25;9.25;;;;;7.86;63.89;100037.41;5056329;28;45506;-59
2024/03/25 06:44:07;;;;;;;;;10.25;8.75;;;;;7.88;63.87;100042.56;5041756;28;75676;-59
2024/03/25 06:46:32;;;;;;;;;29.25;20.50;;;;;7.90;63.80;100036.41;5057904;28;45553;-58
2024/03/25 06:48:58;;;;;;;;;48.75;37.50;;;;;7.86;63.85;100029.59;5059323;28;45665;-59
2024/03/25 06:51:24;;;;;;;;;70.25;54.75;;;;;7.91;63.96;100024.25;5060599;28;45479;-58
2024/03/25 06:53:49;;;;;;;;;88.75;70.25;;;;;7.95;63.82;100029.34;5057075;28;46134;-60
2024/03/25 06:56:14;;;;;;;;;87.50;71.25;;;;;7.98;63.85;100025.78;5059277;28;45459;-61
2024/03/25 06:58:40;;;;;;;;;87.25;68.50;;;;;7.99;63.88;100030.94;5060433;28;68182;-60
2024/03/25 07:01:07;;;;;;;;;86.75;69.25;;;;;7.99;63.94;100022.28;5057056;28;73024;-66
2024/03/25 07:03:33;;;;;;;;;81.25;60.00;;;;;8.01;64.12;100024.84;5053843;28;45229;-63
2024/03/25 07:06:00;;;;;;;;;67.75;52.25;;;;;8.04;64.21;100023.03;5047034;28;45448;-66
2024/03/25 07:08:25;;;;;;;;;39.75;34.25;;;;;8.08;64.07;100022.03;5058031;27;45521;-63
2024/03/25 07:10:50;;;;;;;;;35.50;28.00;;;;;8.11;64.29;100018.47;5060495;28;45362;-64
2024/03/25 07:13:16;;;;;;;;;23.50;21.75;;;;;8.13;64.36;100016.69;5052936;28;57889;-62
2024/03/25 07:15:43;;;;;;;;;22.50;15.25;;;;;8.16;64.05;100011.38;5051319;28;73256;-65
2024/03/25 07:18:10;;;;;;;;;15.00;11.25;;;;;8.19;64.19;100011.28;5057951;28;45452;-64
2024/03/25 07:20:36;;;;;;;;;11.25;8.00;;;;;8.21;64.31;100003.44;5051366;28;45294;-64
2024/03/25 07:23:01;;;;;;;;;10.25;9.25;;;;;8.23;64.43;99999.88;5051298;28;45228;-60
2024/03/25 07:25:27;;;;;;;;;12.00;9.75;;;;;8.28;64.47;100002.34;5056271;28;45352;-59
2024/03/25 07:27:52;;;;;;;;;14.00;9.00;;;;;8.30;64.47;100004.00;5054327;28;62299;-62
2024/03/25 07:30:18;;;;;;;;;14.50;8.75;;;;;8.32;64.52;99996.13;5051421;28;67386;-62
2024/03/25 07:32:47;;;;;;;;;9.00;8.25;;;;;8.41;64.39;100005.44;5034211;28;46455;-62
2024/03/25 07:35:13;;;;;;;;;9.00;8.00;;;;;8.45;64.06;99996.69;5050351;28;45459;-61
2024/03/25 07:37:38;;;;;;;;;8.00;8.00;;;;;8.47;64.32;99997.50;5056398;28;45531;-62
2024/03/25 07:40:04;;;;;;;;;12.00;9.00;;;;;8.51;64.24;99997.31;5051664;28;73019;-62
2024/03/25 07:42:32;;;;;;;;;12.00;10.25;;;;;8.57;64.02;100003.25;5066980;28;47799;-61
2024/03/25 07:44:57;;;;;;;;;12.50;10.25;;;;;8.60;64.02;99995.34;5058875;28;72007;-62
2024/03/25 07:47:22;;;;;;;;;9.75;8.25;;;;;8.63;63.83;99988.28;5049722;28;69690;-61
2024/03/25 07:49:48;;;;;;;;;16.25;9.25;;;;;8.63;63.82;99990.06;5053931;28;73313;-61
2024/03/25 07:52:13;;;;;;;;;12.50;6.50;;;;;8.65;63.65;99973.44;5058339;28;71398;-59
2024/03/25 07:54:39;;;;;;;;;11.00;7.50;;;;;8.70;63.69;99968.94;5047067;28;45630;-60
2024/03/25 07:57:04;;;;;;;;;12.25;7.00;;;;;8.77;63.67;99969.59;5053657;28;47043;-62
2024/03/25 07:59:30;;;;;;;;;11.00;8.25;;;;;8.83;63.31;99958.09;5056175;28;71012;-60
2024/03/25 08:01:55;;;;;;;;;12.00;7.00;;;;;8.88;63.35;99954.44;5055718;28;45584;-60
2024/03/25 08:04:21;;;;;;;;;16.50;10.00;;;;;8.96;63.43;99948.13;5040546;28;45507;-68
2024/03/25 08:06:46;;;;;;;;;11.50;8.00;;;;;9.03;63.44;99953.09;5044147;28;51602;-69
2024/03/25 08:09:13;;;;;;;;;8.75;6.75;;;;;9.09;63.15;99941.59;5054547;28;45366;-60
2024/03/25 08:11:39;;;;;;;;;7.50;5.25;;;;;9.16;62.63;99944.84;5041080;28;45596;-61
2024/03/25 08:14:04;;;;;;;;;15.25;9.00;;;;;9.22;62.38;99942.88;5055968;28;45345;-61
2024/03/25 08:16:29;;;;;;;;;9.50;6.00;;;;;9.27;62.47;99943.56;5041623;27;70585;-61
2024/03/25 08:18:55;;;;;;;;;11.75;6.25;;;;;9.37;62.35;99938.06;5056846;28;59661;-61
2024/03/25 08:21:20;;;;;;;;;9.25;4.50;;;;;9.43;62.02;99936.06;5055296;28;75340;-61
2024/03/25 08:23:45;;;;;;;;;8.25;6.00;;;;;9.51;61.89;99930.59;5052505;28;70220;-61
2024/03/25 08:26:11;;;;;;;;;9.00;6.00;;;;;9.58;61.74;99928.56;5052055;28;45280;-60
2024/03/25 08:28:36;;;;;;;;;15.25;5.00;;;;;9.60;61.41;99922.41;5048545;28;62057;-61
2024/03/25 08:31:02;;;;;;;;;10.25;8.50;;;;;9.72;61.49;99922.84;5041610;28;46025;-60
2024/03/25 08:33:28;;;;;;;;;12.75;7.00;;;;;9.78;61.49;99920.88;5049322;28;45376;-66
2024/03/25 08:35:53;;;;;;;;;11.50;5.50;;;;;9.85;60.88;99919.75;5057440;28;45546;-66
2024/03/25 08:38:19;;;;;;;;;10.25;6.75;;;;;9.93;60.93;99913.38;5037974;28;45519;-70
2024/03/25 08:40:44;;;;;;;;;8.00;6.50;;;;;10.02;60.42;99913.03;5043406;28;46614;-65
2024/03/25 08:43:09;;;;;;;;;10.75;6.00;;;;;10.08;60.20;99912.81;5052669;28;72547;-71
2024/03/25 08:45:35;;;;;;;;;4.75;4.75;;;;;10.16;60.27;99907.28;5043812;28;45434;-69
2024/03/25 08:48:00;;;;;;;;;12.75;5.25;;;;;10.23;60.05;99914.84;5057548;28;69188;-62
2024/03/25 08:50:25;;;;;;;;;9.50;7.75;;;;;10.31;59.81;99909.34;5056843;28;69252;-69
2024/03/25 08:52:51;;;;;;;;;6.50;5.00;;;;;10.37;59.62;99901.22;5060986;28;64000;-68
2024/03/25 08:55:16;;;;;;;;;8.00;5.00;;;;;10.45;59.66;99900.94;5046361;27;69897;-68
2024/03/25 08:57:41;;;;;;;;;4.00;4.00;;;;;10.51;59.55;99895.44;5053610;28;71917;-71
2024/03/25 09:00:10;;;;;;;;;6.00;4.75;;;;;10.57;59.57;99897.84;5057506;28;70379;-65
2024/03/25 09:02:36;;;;;;;;;43.00;32.50;;;;;10.66;59.53;99901.84;5057109;28;45326;-63
2024/03/25 09:05:05;;;;;;;;;11.75;7.00;;;;;10.72;59.22;99882.41;5049499;28;45414;-65
2024/03/25 09:07:30;;;;;;;;;13.00;6.25;;;;;10.77;59.44;99888.31;5068171;28;45265;-62
2024/03/25 09:12:39;;;;;;;;;11.75;6.50;;;;;10.89;59.57;99874.72;5058524;28;45395;-61
2024/03/25 09:15:06;;;;;;;;;6.50;6.00;;;;;10.96;58.83;99864.81;5057466;28;56037;-62
2024/03/25 09:17:31;;;;;;;;;11.25;7.25;;;;;11.03;58.98;99861.06;5043256;28;45410;-66
2024/03/25 09:19:56;;;;;;;;;10.00;5.50;;;;;11.08;58.83;99851.19;5050637;28;73586;-64
2024/03/25 09:22:23;;;;;;;;;13.00;7.00;;;;;11.13;58.90;99841.38;5059484;28;45379;-62
2024/03/25 09:24:49;;;;;;;;;11.50;7.50;;;;;11.28;59.12;99847.72;5051287;28;45465;-67
2024/03/25 09:27:15;;;;;;;;;6.25;6.25;;;;;11.39;59.10;99847.25;5059190;28;45226;-65
2024/03/25 09:29:41;;;;;;;;;6.00;5.75;;;;;11.50;58.88;99831.06;5057004;28;46953;-66
2024/03/25 09:32:07;;;;;;;;;6.25;3.00;;;;;11.60;58.78;99840.19;5058294;28;45761;-60
2024/03/25 09:34:32;;;;;;;;;3.75;3.00;;;;;11.69;58.49;99831.06;5055792;28;45470;-62
2024/03/25 09:36:57;;;;;;;;;10.50;6.25;;;;;11.76;58.29;99833.31;5048664;28;72106;-63
2024/03/25 09:39:23;;;;;;;;;8.00;5.50;;;;;11.82;57.93;99826.94;5045083;28;63149;-62
2024/03/25 09:41:50;;;;;;;;;6.00;3.50;;;;;11.89;58.21;99822.25;5056985;28;45298;-67
2024/03/25 09:44:19;;;;;;;;;5.00;4.00;;;;;11.98;58.07;99823.63;5061815;28;45810;-63
2024/03/25 09:46:44;;;;;;;;;6.75;4.00;;;;;12.05;57.76;99818.00;5059454;28;60539;-63
2024/03/25 09:49:09;;;;;;;;;6.00;4.75;;;;;12.13;57.63;99815.88;5059728;28;75502;-64
2024/03/25 09:51:35;;;;;;;;;6.50;4.50;;;;;12.23;57.09;99811.03;5061836;28;71496;-63
2024/03/25 09:54:00;;;;;;;;;6.00;5.25;;;;;12.35;57.08;99804.34;5058789;28;57270;-61
2024/03/25 09:56:26;;;;;;;;;6.50;5.00;;;;;12.48;57.09;99801.94;5061614;28;71758;-63
2024/03/25 09:58:51;;;;;;;;;10.75;6.00;;;;;12.60;56.92;99797.88;5061340;28;45434;-63
2024/03/25 10:01:17;;;;;;;;;8.75;6.00;;;;;12.72;56.97;99790.22;5054774;28;69765;-64
2024/03/25 10:03:42;;;;;;;;;7.00;5.75;;;;;12.79;56.74;99790.75;5063665;28;45650;-64
2024/03/25 10:06:09;;;;;;;;;9.25;5.00;;;;;12.86;56.50;99784.25;5054274;28;57094;-63
2024/03/25 10:08:35;;;;;;;;;9.25;6.00;;;;;12.98;56.12;99774.91;5051200;28;46287;-63
2024/03/25 10:11:02;;;;;;;;;4.00;4.00;;;;;13.17;56.00;99771.28;5056625;28;72176;-63
2024/03/25 10:13:27;;;;;;;;;5.00;5.00;;;;;13.30;55.63;99770.56;5062400;28;45424;-63
2024/03/25 10:15:53;;;;;;;;;3.00;3.00;;;;;13.40;55.30;99763.06;5058613;28;71166;-60
2024/03/25 10:18:19;;;;;;;;;6.50;5.50;;;;;13.53;55.61;99762.38;5061580;28;46112;-61
2024/03/25 10:20:51;;;;;;;;;5.00;5.00;;;;;13.65;55.29;99762.56;5047710;28;49657;-63
2024/03/25 10:23:23;;;;;;;;;8.00;5.25;;;;;13.80;54.61;99752.97;5057985;28;45444;-66
2024/03/25 10:25:48;;;;;;;;;5.00;4.00;;;;;13.93;53.98;99752.28;5061616;28;45222;-65
2024/03/25 10:28:14;;;;;;;;;5.50;1.25;;;;;14.01;53.55;99745.66;5060171;28;72863;-67
2024/03/25 10:30:41;;;;;;;;;11.00;5.00;;;;;14.02;53.12;99746.47;5042766;28;69775;-67
2024/03/25 10:33:07;;;;;;;;;7.75;5.00;;;;;13.97;53.13;99738.88;5051938;28;45467;-66
2024/03/25 10:35:34;;;;;;;;;5.00;4.00;;;;;14.04;52.99;99734.09;5052975;28;45394;-64
2024/03/25 10:38:07;;;;;;;;;7.75;5.00;;;;;14.18;52.67;99728.03;5059226;28;46294;-74
2024/03/25 10:40:39;;;;;;;;;5.00;4.50;;;;;14.36;52.61;99723.47;5051193;28;45335;-65
2024/03/25 10:43:09;;;;;;;;;6.00;4.25;;;;;14.47;52.09;99709.69;5052940;28;45418;-66
2024/03/25 10:45:35;;;;;;;;;4.50;3.00;;;;;14.52;51.28;99708.47;5057885;28;45399;-65
2024/03/25 10:48:04;;;;;;;;;4.25;2.00;;;;;14.52;51.41;99703.22;5050296;28;45719;-68
2024/03/25 10:50:29;;;;;;;;;5.25;3.25;;;;;14.55;50.24;99694.28;5049952;28;45784;-64
2024/03/25 10:52:57;;;;;;;;;5.00;3.00;;;;;14.60;50.54;99690.44;5060877;28;45335;-70
2024/03/25 10:55:23;;;;;;;;;7.25;3.00;;;;;14.62;49.97;99674.56;5044660;28;45533;-76
2024/03/25 10:57:48;;;;;;;;;4.50;3.00;;;;;14.67;49.83;99675.13;5057113;28;46617;-70
2024/03/25 11:00:15;;;;;;;;;4.50;2.00;;;;;14.74;49.63;99667.72;5057835;28;45343;-63
2024/03/25 11:02:44;;;;;;;;;3.25;3.00;;;;;14.84;48.88;99666.22;5059893;28;45354;-64
2024/03/25 11:05:10;;;;;;;;;5.50;3.00;;;;;14.93;49.24;99656.88;5059926;28;45292;-66
2024/03/25 11:07:37;;;;;;;;;3.50;3.00;;;;;14.98;48.88;99653.03;5048850;28;46289;-69
2024/03/25 11:10:07;;;;;;;;;2.00;2.00;;;;;15.05;48.55;99658.75;5054252;28;45738;-69
2024/03/25 11:12:38;;;;;;;;;6.25;3.25;;;;;15.14;48.55;99646.78;5059589;28;45293;-82
2024/03/25 11:15:05;;;;;;;;;4.00;2.00;;;;;15.23;47.77;99632.16;5052661;28;45737;-71
2024/03/25 11:17:31;;;;;;;;;3.00;3.00;;;;;15.24;46.91;99629.41;5041577;28;47407;-66
2024/03/25 11:20:11;;;;;;;;;3.75;1.00;;;;;15.29;47.16;99622.06;5050954;28;45469;-67
2024/03/25 11:22:47;;;;;;;;;1.00;1.00;;;;;15.31;47.19;99614.06;5041295;28;45751;-65
2024/03/25 11:25:13;;;;;;;;;3.50;2.75;;;;;15.31;46.51;99609.63;5060107;28;45295;-65
2024/03/25 11:27:40;;;;;;;;;4.00;2.75;;;;;15.30;46.05;99610.59;5061060;28;45971;-65